Time;durP1;ratioP1;P1;durP2;ratioP2;P2;SDS_P1;SDS_P2;PMS_P1;PMS_P2;Temp;Humidity;BMP_temperature;BMP_pressure;BME280_temperature;BME280_humidity;BME280_pressure;Samples;Min_cycle;Max_cycle;Signal;HPM_P1;HPM_P2
2022/12/01 00:01:39;;;;;;;;;46.00;35.50;;;;;;;;5052500;28;45516;-81
2022/12/01 00:04:04;;;;;;;;;56.25;41.25;;;;;;;;5049540;28;45845;-81
2022/12/01 00:06:30;;;;;;;;;50.75;37.75;;;;;;;;5055444;28;45517;-80
2022/12/01 00:11:39;;;;;;;;;51.75;40.25;;;;;;;;5052932;28;45433;-81
2022/12/01 00:14:05;;;;;;;;;54.25;36.75;;;;;;;;5056707;28;45836;-80
2022/12/01 00:16:31;;;;;;;;;51.25;40.00;;;;;;;;5038641;28;45933;-81
2022/12/01 00:18:57;;;;;;;;;48.00;31.75;;;;;;;;5057481;28;45848;-82
2022/12/01 00:21:23;;;;;;;;;53.00;39.00;;;;;;;;5050881;28;45534;-81
2022/12/01 00:23:49;;;;;;;;;55.25;44.00;;;;;;;;5054448;28;45495;-82
2022/12/01 00:26:15;;;;;;;;;53.00;36.00;;;;;;;;5041293;28;46178;-82
2022/12/01 00:28:41;;;;;;;;;51.00;38.25;;;;;;;;5058172;28;47724;-82
2022/12/01 00:31:10;;;;;;;;;51.75;40.00;;;;;;;;5056424;28;45794;-83
2022/12/01 00:33:35;;;;;;;;;54.25;42.25;;;;;;;;5067267;28;45592;-81
2022/12/01 00:36:00;;;;;;;;;58.75;42.75;;;;;;;;5050462;28;45881;-81
2022/12/01 00:38:26;;;;;;;;;56.00;43.50;;;;;;;;5049827;28;45857;-82
2022/12/01 00:40:51;;;;;;;;;59.25;43.75;;;;;;;;5040209;28;45747;-81
2022/12/01 00:43:17;;;;;;;;;54.75;38.25;;;;;;;;5037516;28;45810;-82
2022/12/01 00:45:42;;;;;;;;;54.50;43.00;;;;;;;;5048314;28;45744;-82
2022/12/01 00:48:08;;;;;;;;;55.25;42.00;;;;;;;;5054862;28;46208;-81
2022/12/01 00:50:33;;;;;;;;;58.50;44.00;;;;;;;;5038999;28;45422;-82
2022/12/01 00:52:58;;;;;;;;;54.00;39.00;;;;;;;;5036208;28;45772;-81
2022/12/01 00:55:24;;;;;;;;;46.25;34.75;;;;;;;;5040156;28;45921;-81
2022/12/01 00:57:49;;;;;;;;;52.50;42.75;;;;;;;;5038364;28;46256;-81
2022/12/01 01:00:16;;;;;;;;;57.75;40.00;;;;;;;;5041020;28;45555;-82
2022/12/01 01:02:41;;;;;;;;;45.75;35.75;;;;;;;;5053818;28;45915;-82
2022/12/01 01:05:07;;;;;;;;;53.50;30.25;;;;;;;;5056136;28;45703;-82
2022/12/01 01:07:32;;;;;;;;;52.25;41.75;;;;;;;;5050362;28;46834;-80
2022/12/01 01:09:57;;;;;;;;;49.75;37.00;;;;;;;;5053254;28;45481;-82
2022/12/01 01:12:23;;;;;;;;;51.50;41.25;;;;;;;;5057769;28;45418;-80
2022/12/01 01:14:48;;;;;;;;;58.25;42.25;;;;;;;;5046633;28;45361;-81
2022/12/01 01:17:13;;;;;;;;;54.00;41.25;;;;;;;;5035443;28;48056;-81
2022/12/01 01:19:39;;;;;;;;;56.00;38.50;;;;;;;;5056003;28;45323;-82
2022/12/01 01:22:04;;;;;;;;;54.75;38.75;;;;;;;;5051432;28;45611;-82
2022/12/01 01:24:29;;;;;;;;;56.50;40.00;;;;;;;;5056973;28;45555;-80
2022/12/01 01:26:54;;;;;;;;;55.00;38.00;;;;;;;;5061503;28;46905;-82
2022/12/01 01:29:20;;;;;;;;;54.75;40.00;;;;;;;;5056132;28;45894;-83
2022/12/01 01:31:45;;;;;;;;;50.25;39.50;;;;;;;;5055288;28;45725;-82
2022/12/01 01:34:12;;;;;;;;;59.50;43.50;;;;;;;;5057425;28;45900;-81
2022/12/01 01:36:37;;;;;;;;;53.00;39.75;;;;;;;;5036317;28;46836;-82
2022/12/01 01:39:03;;;;;;;;;49.00;37.50;;;;;;;;5049257;28;45450;-82
2022/12/01 01:41:28;;;;;;;;;52.25;38.75;;;;;;;;5052228;28;45813;-81
2022/12/01 01:43:55;;;;;;;;;43.00;33.25;;;;;;;;5037684;28;45478;-82
2022/12/01 01:46:22;;;;;;;;;48.00;38.00;;;;;;;;5030296;28;47611;-80
2022/12/01 01:48:55;;;;;;;;;57.75;39.25;;;;;;;;5050553;28;45748;-82
2022/12/01 01:51:29;;;;;;;;;45.00;37.25;;;;;;;;5055233;28;45774;-82
2022/12/01 01:53:57;;;;;;;;;54.75;40.25;;;;;;;;5036363;28;46293;-85
2022/12/01 01:56:23;;;;;;;;;59.50;38.00;;;;;;;;5046026;28;47103;-86
2022/12/01 01:58:48;;;;;;;;;46.33;37.00;;;;;;;;5054883;28;45636;-86
2022/12/01 02:01:14;;;;;;;;;50.75;39.75;;;;;;;;5058248;28;45484;-86
2022/12/01 02:03:40;;;;;;;;;52.25;38.75;;;;;;;;5049018;28;45637;-86
2022/12/01 02:06:06;;;;;;;;;37.00;31.50;;;;;;;;5053234;28;45512;-84
2022/12/01 02:08:33;;;;;;;;;41.33;32.00;;;;;;;;5031475;28;45867;-85
2022/12/01 02:11:09;;;;;;;;;49.50;39.25;;;;;;;;5060938;28;45469;-85
2022/12/01 02:13:34;;;;;;;;;48.25;38.25;;;;;;;;5060151;28;45472;-87
2022/12/01 02:16:08;;;;;;;;;52.25;37.25;;;;;;;;5062317;28;46084;-85
2022/12/01 02:18:41;;;;;;;;;48.50;37.00;;;;;;;;5039542;28;45440;-82
2022/12/01 02:21:25;;;;;;;;;55.00;39.25;;;;;;;;5034620;28;45889;-84
2022/12/01 02:23:50;;;;;;;;;50.50;35.00;;;;;;;;5041143;28;47417;-82
2022/12/01 02:26:22;;;;;;;;;41.67;35.00;;;;;;;;5036014;28;47136;-84
2022/12/01 02:29:02;;;;;;;;;43.67;36.00;;;;;;;;5050155;28;45409;-82
2022/12/01 02:31:37;;;;;;;;;47.00;33.00;;;;;;;;5057842;28;45923;-81
2022/12/01 02:34:13;;;;;;;;;43.00;32.67;;;;;;;;5064227;28;45507;-81
2022/12/01 02:36:45;;;;;;;;;45.75;33.00;;;;;;;;5040554;28;45607;-81
2022/12/01 02:39:20;;;;;;;;;53.25;39.25;;;;;;;;5052881;28;45922;-81
2022/12/01 02:41:51;;;;;;;;;45.00;34.00;;;;;;;;5037689;28;45476;-81
2022/12/01 02:44:38;;;;;;;;;49.00;38.25;;;;;;;;5056092;28;45182;-84
2022/12/01 02:47:10;;;;;;;;;43.00;35.33;;;;;;;;5060691;28;48271;-82
2022/12/01 02:49:39;;;;;;;;;50.33;35.33;;;;;;;;5028143;28;45477;-85
2022/12/01 02:52:05;;;;;;;;;51.00;37.67;;;;;;;;5052810;28;45714;-85
2022/12/01 02:54:32;;;;;;;;;44.00;34.33;;;;;;;;5062862;28;45445;-88
2022/12/01 02:56:58;;;;;;;;;46.00;35.33;;;;;;;;5070777;28;45585;-85
2022/12/01 02:59:24;;;;;;;;;39.33;31.33;;;;;;;;5056270;28;45977;-85
2022/12/01 03:02:03;;;;;;;;;48.33;34.33;;;;;;;;5060201;28;45237;-85
2022/12/01 03:04:31;;;;;;;;;43.33;27.67;;;;;;;;5039367;28;46003;-81
2022/12/01 03:07:15;;;;;;;;;42.33;34.67;;;;;;;;5035451;28;45816;-81
2022/12/01 03:09:59;;;;;;;;;49.67;35.00;;;;;;;;5057933;28;45936;-82
2022/12/01 03:12:24;;;;;;;;;46.67;35.00;;;;;;;;5043945;28;45531;-79
2022/12/01 03:14:49;;;;;;;;;50.33;35.67;;;;;;;;5052141;28;45504;-81
2022/12/01 03:17:16;;;;;;;;;50.00;38.33;;;;;;;;5039783;28;46737;-82
2022/12/01 03:19:52;;;;;;;;;53.25;38.50;;;;;;;;5037608;28;46006;-79
2022/12/01 03:22:21;;;;;;;;;47.50;38.25;;;;;;;;5050391;28;45502;-81
2022/12/01 03:24:48;;;;;;;;;46.50;36.75;;;;;;;;5032929;28;46709;-80
2022/12/01 03:27:15;;;;;;;;;45.00;35.75;;;;;;;;5053740;28;45390;-84
2022/12/01 03:29:45;;;;;;;;;41.33;34.67;;;;;;;;5024338;28;45408;-84
2022/12/01 03:32:14;;;;;;;;;42.00;33.00;;;;;;;;5072567;28;45378;-84
2022/12/01 03:34:49;;;;;;;;;43.25;36.00;;;;;;;;5044646;28;45995;-86
2022/12/01 03:37:23;;;;;;;;;43.33;35.67;;;;;;;;5044908;28;45733;-83
2022/12/01 03:39:50;;;;;;;;;46.50;35.75;;;;;;;;5043484;28;45099;-82
2022/12/01 03:42:21;;;;;;;;;47.33;38.33;;;;;;;;5051273;28;45532;-82
2022/12/01 03:44:48;;;;;;;;;47.75;38.00;;;;;;;;5061723;28;45693;-82
2022/12/01 03:47:19;;;;;;;;;53.00;36.75;;;;;;;;5063425;28;45889;-83
2022/12/01 03:49:45;;;;;;;;;44.33;35.67;;;;;;;;5038839;28;46003;-85
2022/12/01 03:52:13;;;;;;;;;43.50;34.25;;;;;;;;5056304;28;45521;-83
2022/12/01 03:55:04;;;;;;;;;55.75;43.00;;;;;;;;5065196;28;45458;-84
2022/12/01 03:57:39;;;;;;;;;51.25;36.75;;;;;;;;5053001;28;46510;-85
2022/12/01 04:00:10;;;;;;;;;55.00;41.75;;;;;;;;5042029;28;45850;-83
2022/12/01 04:02:36;;;;;;;;;42.00;35.33;;;;;;;;5053908;28;45429;-84
2022/12/01 04:05:03;;;;;;;;;54.25;38.75;;;;;;;;5046846;28;46090;-83
2022/12/01 04:07:29;;;;;;;;;45.00;36.50;;;;;;;;5045650;28;47109;-82
2022/12/01 04:09:54;;;;;;;;;57.50;39.50;;;;;;;;5067529;28;45701;-82
2022/12/01 04:12:28;;;;;;;;;53.75;40.75;;;;;;;;5061039;28;45736;-83
2022/12/01 04:14:58;;;;;;;;;54.75;41.25;;;;;;;;5044963;28;46391;-83
2022/12/01 04:17:23;;;;;;;;;53.25;37.25;;;;;;;;5058266;28;47679;-84
2022/12/01 04:19:48;;;;;;;;;51.00;38.00;;;;;;;;5057052;28;45334;-80
2022/12/01 04:22:14;;;;;;;;;41.50;31.00;;;;;;;;5057692;28;45699;-81
2022/12/01 04:24:39;;;;;;;;;42.25;34.00;;;;;;;;5051010;28;45671;-82
2022/12/01 04:27:05;;;;;;;;;52.50;38.50;;;;;;;;5051211;28;46655;-81
2022/12/01 04:29:35;;;;;;;;;35.25;29.50;;;;;;;;5054557;28;46408;-81
2022/12/01 04:32:00;;;;;;;;;51.50;38.25;;;;;;;;5056533;28;45427;-80
2022/12/01 04:34:25;;;;;;;;;55.50;37.25;;;;;;;;5052487;28;45784;-80
2022/12/01 04:36:51;;;;;;;;;51.75;37.00;;;;;;;;5045432;28;45638;-79
2022/12/01 04:39:16;;;;;;;;;51.75;38.25;;;;;;;;5037326;28;45944;-81
2022/12/01 04:41:41;;;;;;;;;50.25;36.50;;;;;;;;5059144;28;45417;-78
2022/12/01 04:44:08;;;;;;;;;50.25;38.50;;;;;;;;5052639;28;45540;-80
2022/12/01 04:46:33;;;;;;;;;54.75;40.00;;;;;;;;5040847;28;47117;-82
2022/12/01 04:48:59;;;;;;;;;47.25;37.00;;;;;;;;5065715;28;45591;-80
2022/12/01 04:51:24;;;;;;;;;55.00;38.25;;;;;;;;5057924;28;45320;-79
2022/12/01 04:53:49;;;;;;;;;44.75;34.75;;;;;;;;5034933;28;45989;-81
2022/12/01 04:56:15;;;;;;;;;50.00;35.50;;;;;;;;5055209;28;45458;-81
2022/12/01 04:58:40;;;;;;;;;54.00;39.00;;;;;;;;5051423;28;45685;-83
2022/12/01 05:01:07;;;;;;;;;53.75;39.25;;;;;;;;5060917;28;45835;-82
2022/12/01 05:03:35;;;;;;;;;47.25;35.00;;;;;;;;5053248;28;45676;-83
2022/12/01 05:06:04;;;;;;;;;47.25;36.50;;;;;;;;5046847;28;45726;-81
2022/12/01 05:08:30;;;;;;;;;54.25;38.25;;;;;;;;5055421;28;45394;-82
2022/12/01 05:10:55;;;;;;;;;50.75;37.50;;;;;;;;5044927;28;45436;-82
2022/12/01 05:13:21;;;;;;;;;51.00;36.00;;;;;;;;5047952;28;45885;-79
2022/12/01 05:15:46;;;;;;;;;46.50;34.00;;;;;;;;5056809;28;45836;-80
2022/12/01 05:18:11;;;;;;;;;56.50;40.50;;;;;;;;5051349;28;45834;-79
2022/12/01 05:23:20;;;;;;;;;60.75;43.25;;;;;;;;5058688;28;45450;-87
2022/12/01 05:25:46;;;;;;;;;31.75;31.75;;;;;;;;5059207;28;45826;-86
2022/12/01 05:28:11;;;;;;;;;54.25;38.25;;;;;;;;5067275;28;45511;-84
2022/12/01 05:30:37;;;;;;;;;53.00;40.50;;;;;;;;5044902;28;45818;-84
2022/12/01 05:33:02;;;;;;;;;56.00;39.75;;;;;;;;5066234;28;45568;-83
2022/12/01 05:35:27;;;;;;;;;50.50;35.50;;;;;;;;5045320;28;47007;-83
2022/12/01 05:37:53;;;;;;;;;53.25;39.00;;;;;;;;5052259;28;45413;-84
2022/12/01 05:40:19;;;;;;;;;53.25;39.25;;;;;;;;5056852;28;45451;-83
2022/12/01 05:42:44;;;;;;;;;50.75;39.25;;;;;;;;5044758;28;47284;-85
2022/12/01 05:45:09;;;;;;;;;45.25;33.00;;;;;;;;5062522;28;45960;-86
2022/12/01 05:47:35;;;;;;;;;47.00;36.50;;;;;;;;5038167;28;45486;-85
2022/12/01 05:50:11;;;;;;;;;53.75;38.00;;;;;;;;5052891;28;44879;-87
2022/12/01 06:17:11;;;;;;;;;51.25;41.00;;;;;;;;5063677;28;45417;-83
2022/12/01 06:19:47;;;;;;;;;;;;;;;;;;;;;
2022/12/01 06:29:18;;;;;;;;;53.00;40.00;;;;;;;;4924665;28;45900;-81
2022/12/01 06:41:29;;;;;;;;;51.25;39.00;;;;;;;;4938010;28;45707;-83
2022/12/01 06:44:29;;;;;;;;;42.75;35.25;;;;;;;;4921297;28;45439;-86
2022/12/01 06:47:12;;;;;;;;;43.00;33.50;;;;;;;;4905833;28;45562;-81
2022/12/01 06:49:41;;;;;;;;;44.50;33.50;;;;;;;;4914789;28;45602;-83
2022/12/01 06:52:09;;;;;;;;;45.00;34.75;;;;;;;;4912695;28;45637;-83
2022/12/01 06:55:08;;;;;;;;;41.00;33.75;;;;;;;;4931452;28;45515;-80
2022/12/01 06:58:00;;;;;;;;;;;;;;;;;;;;;
2022/12/01 07:00:57;;;;;;;;;;;;;;;;;;;;;
2022/12/01 07:03:53;;;;;;;;;46.00;36.00;;;;;;;;4995309;28;74444;-82
2022/12/01 07:07:03;;;;;;;;;48.50;35.75;;;;;;;;4974094;28;46342;-84
2022/12/01 07:09:33;;;;;;;;;50.50;37.50;;;;;;;;4960151;28;45867;-87
2022/12/01 07:15:39;;;;;;;;;50.25;36.25;;;;;;;;4949528;28;45649;-83
2022/12/01 07:24:35;;;;;;;;;48.00;35.75;;;;;;;;4952686;28;45488;-81
2022/12/01 07:27:00;;;;;;;;;45.25;36.00;;;;;;;;4965531;28;45647;-80
2022/12/01 07:29:29;;;;;;;;;41.50;31.00;;;;;;;;4995937;28;46070;-79
2022/12/01 07:31:54;;;;;;;;;50.00;36.00;;;;;;;;5033200;28;45869;-82
2022/12/01 07:34:20;;;;;;;;;50.67;36.00;;;;;;;;5012894;28;45441;-81
2022/12/01 07:42:56;;;;;;;;;44.00;35.25;;;;;;;;5003471;28;45523;-81
2022/12/01 07:45:22;;;;;;;;;34.67;23.00;;;;;;;;4992352;28;45851;-79
2022/12/01 07:47:51;;;;;;;;;45.75;38.50;;;;;;;;4991027;28;46923;-82
2022/12/01 07:50:16;;;;;;;;;46.67;33.67;;;;;;;;5032846;28;46542;-81
2022/12/01 07:52:41;;;;;;;;;55.50;39.00;;;;;;;;5033161;28;46304;-82
2022/12/01 07:55:07;;;;;;;;;40.75;35.75;;;;;;;;5027665;28;46064;-81
2022/12/01 07:57:36;;;;;;;;;39.00;34.00;;;;;;;;5013981;28;46030;-82
2022/12/01 08:00:01;;;;;;;;;46.25;38.50;;;;;;;;5033911;28;46332;-82
2022/12/01 08:02:27;;;;;;;;;54.50;40.00;;;;;;;;5041585;28;45621;-80
2022/12/01 08:04:52;;;;;;;;;48.33;35.00;;;;;;;;5029023;28;45576;-82
2022/12/01 08:07:19;;;;;;;;;37.25;32.00;;;;;;;;5039570;28;45370;-80
2022/12/01 08:09:44;;;;;;;;;45.33;36.67;;;;;;;;5027137;28;47017;-84
2022/12/01 08:12:09;;;;;;;;;36.75;30.75;;;;;;;;5043353;28;45882;-84
2022/12/01 08:14:35;;;;;;;;;40.00;27.33;;;;;;;;5022395;28;45404;-84
2022/12/01 08:17:00;;;;;;;;;46.25;35.00;;;;;;;;5041258;28;45406;-85
2022/12/01 08:19:28;;;;;;;;;38.50;33.25;;;;;;;;5045552;28;46185;-82
2022/12/01 08:21:58;;;;;;;;;45.25;36.00;;;;;;;;5045064;28;45580;-84
2022/12/01 08:24:25;;;;;;;;;46.75;34.50;;;;;;;;5038773;28;45519;-85
2022/12/01 08:26:51;;;;;;;;;39.25;29.75;;;;;;;;5026677;28;45861;-83
2022/12/01 08:29:16;;;;;;;;;36.67;31.33;;;;;;;;5032602;28;45988;-85
2022/12/01 08:31:42;;;;;;;;;43.00;34.33;;;;;;;;5043466;28;45706;-83
2022/12/01 08:34:14;;;;;;;;;42.67;32.67;;;;;;;;5038449;28;45651;-84
2022/12/01 08:36:40;;;;;;;;;32.33;27.00;;;;;;;;5020185;28;45994;-85
2022/12/01 08:39:07;;;;;;;;;35.00;30.00;;;;;;;;5046754;28;46190;-84
2022/12/01 08:41:34;;;;;;;;;39.33;33.00;;;;;;;;5018237;28;45871;-82
2022/12/01 08:44:00;;;;;;;;;50.00;36.33;;;;;;;;5056604;28;45599;-86
2022/12/01 08:46:30;;;;;;;;;40.33;27.33;;;;;;;;5039190;28;45546;-85
2022/12/01 08:48:56;;;;;;;;;35.33;31.00;;;;;;;;5058365;28;45484;-85
2022/12/01 08:51:23;;;;;;;;;45.67;34.67;;;;;;;;5056738;28;45661;-84
2022/12/01 08:53:48;;;;;;;;;46.67;32.00;;;;;;;;5065344;28;45515;-86
2022/12/01 08:56:14;;;;;;;;;41.33;29.67;;;;;;;;5054428;28;45533;-82
2022/12/01 08:58:39;;;;;;;;;33.33;25.33;;;;;;;;5058499;28;46174;-83
2022/12/01 09:01:09;;;;;;;;;43.33;31.00;;;;;;;;5060006;28;45435;-85
2022/12/01 09:03:35;;;;;;;;;37.00;31.33;;;;;;;;5037836;28;45448;-85
2022/12/01 09:06:04;;;;;;;;;43.67;27.33;;;;;;;;5049015;28;45956;-83
2022/12/01 09:08:30;;;;;;;;;40.67;32.33;;;;;;;;5062168;28;47094;-85
2022/12/01 09:10:59;;;;;;;;;43.00;35.00;;;;;;;;5039394;28;45781;-84
2022/12/01 09:13:25;;;;;;;;;39.00;29.33;;;;;;;;5044572;28;45755;-85
2022/12/01 09:15:57;;;;;;;;;36.00;28.33;;;;;;;;5041575;28;46048;-86
2022/12/01 09:18:23;;;;;;;;;35.67;33.00;;;;;;;;5056422;28;45419;-86
2022/12/01 09:20:48;;;;;;;;;39.33;27.33;;;;;;;;5044111;28;45838;-84
2022/12/01 09:23:13;;;;;;;;;33.33;28.00;;;;;;;;5058157;28;45493;-85
2022/12/01 09:25:39;;;;;;;;;34.67;31.00;;;;;;;;5037059;28;46016;-83
2022/12/01 09:28:04;;;;;;;;;44.00;32.33;;;;;;;;5059857;28;46240;-83
2022/12/01 09:30:29;;;;;;;;;40.33;30.67;;;;;;;;5046863;28;45331;-85
2022/12/01 09:32:57;;;;;;;;;34.00;26.67;;;;;;;;5038885;28;45422;-85
2022/12/01 09:35:23;;;;;;;;;43.33;35.67;;;;;;;;5062064;28;46278;-83
2022/12/01 09:37:48;;;;;;;;;32.00;24.67;;;;;;;;5044559;28;46527;-84
2022/12/01 09:40:14;;;;;;;;;42.67;33.00;;;;;;;;5063665;28;45776;-85
2022/12/01 09:42:40;;;;;;;;;38.00;28.67;;;;;;;;5036897;28;44975;-84
2022/12/01 09:45:06;;;;;;;;;28.00;19.33;;;;;;;;5046609;28;45739;-83
2022/12/01 09:47:34;;;;;;;;;42.33;30.00;;;;;;;;5015316;28;47255;-85
2022/12/01 09:50:00;;;;;;;;;34.33;28.00;;;;;;;;5020962;28;45499;-85
2022/12/01 09:52:26;;;;;;;;;36.33;28.67;;;;;;;;5022603;28;45464;-85
2022/12/01 09:54:56;;;;;;;;;37.00;29.67;;;;;;;;5036535;28;45846;-86
2022/12/01 09:57:21;;;;;;;;;36.33;31.33;;;;;;;;5019852;28;46347;-83
2022/12/01 09:59:46;;;;;;;;;28.33;23.67;;;;;;;;5020855;28;45642;-85
2022/12/01 10:02:27;;;;;;;;;48.33;32.00;;;;;;;;5022804;28;45396;-87
2022/12/01 10:04:55;;;;;;;;;34.00;27.00;;;;;;;;5027079;28;45332;-85
2022/12/01 10:07:23;;;;;;;;;35.67;27.33;;;;;;;;5022092;28;45652;-85
2022/12/01 10:09:59;;;;;;;;;33.67;32.00;;;;;;;;5040137;28;45438;-86
2022/12/01 10:12:28;;;;;;;;;30.33;25.00;;;;;;;;5028069;28;45289;-86
2022/12/01 10:14:59;;;;;;;;;35.33;27.00;;;;;;;;5022965;28;45651;-85
2022/12/01 10:17:37;;;;;;;;;35.67;28.00;;;;;;;;5033042;28;46879;-85
2022/12/01 10:20:14;;;;;;;;;17.33;14.33;;;;;;;;5042033;28;45465;-83
2022/12/01 10:22:49;;;;;;;;;28.67;24.67;;;;;;;;5044277;28;45677;-89
2022/12/01 10:25:21;;;;;;;;;36.33;29.67;;;;;;;;5042099;28;45187;-87
2022/12/01 10:27:58;;;;;;;;;34.00;28.00;;;;;;;;5044944;28;46172;-86
2022/12/01 10:30:24;;;;;;;;;32.00;22.33;;;;;;;;5040440;28;45371;-85
2022/12/01 10:32:54;;;;;;;;;33.67;24.33;;;;;;;;5028850;28;45767;-86
2022/12/01 10:35:20;;;;;;;;;39.67;30.67;;;;;;;;5036507;28;45660;-86
2022/12/01 10:37:48;;;;;;;;;29.67;25.00;;;;;;;;5024824;28;47078;-86
2022/12/01 10:40:15;;;;;;;;;32.33;30.33;;;;;;;;5038651;28;45524;-85
2022/12/01 10:42:42;;;;;;;;;32.67;27.33;;;;;;;;5033318;28;45716;-83
2022/12/01 10:45:15;;;;;;;;;28.33;23.00;;;;;;;;5046488;28;45740;-85
2022/12/01 10:48:01;;;;;;;;;31.33;29.00;;;;;;;;5056986;28;45643;-87
2022/12/01 10:50:37;;;;;;;;;31.67;26.67;;;;;;;;5048823;28;45953;-85
2022/12/01 10:53:22;;;;;;;;;33.33;26.33;;;;;;;;5048052;28;45810;-84
2022/12/01 10:56:07;;;;;;;;;30.33;26.33;;;;;;;;5040269;28;45805;-85
2022/12/01 10:58:41;;;;;;;;;27.33;23.33;;;;;;;;5055118;28;45496;-86
2022/12/01 11:01:14;;;;;;;;;31.00;27.33;;;;;;;;5040598;28;45893;-85
2022/12/01 11:03:39;;;;;;;;;30.33;22.33;;;;;;;;5038858;28;45822;-85
2022/12/01 11:06:06;;;;;;;;;32.67;29.00;;;;;;;;5040896;28;46551;-84
2022/12/01 11:08:51;;;;;;;;;29.00;28.00;;;;;;;;5060573;28;45933;-86
2022/12/01 11:11:27;;;;;;;;;27.33;23.67;;;;;;;;5055447;28;45824;-84
2022/12/01 11:13:56;;;;;;;;;28.00;26.00;;;;;;;;5042665;28;45896;-85
2022/12/01 11:16:40;;;;;;;;;30.00;26.00;;;;;;;;5041670;28;45543;-82
2022/12/01 11:19:25;;;;;;;;;31.00;25.67;;;;;;;;5056545;28;46818;-83
2022/12/01 11:21:52;;;;;;;;;25.33;23.67;;;;;;;;5050446;28;45501;-83
2022/12/01 11:24:26;;;;;;;;;26.00;24.00;;;;;;;;5052469;28;45819;-83
2022/12/01 11:26:52;;;;;;;;;32.00;26.00;;;;;;;;5050427;28;45794;-82
2022/12/01 11:29:20;;;;;;;;;31.33;25.67;;;;;;;;5040359;28;45935;-83
2022/12/01 11:31:48;;;;;;;;;33.33;25.00;;;;;;;;5040379;28;45834;-82
2022/12/01 11:34:41;;;;;;;;;31.00;25.33;;;;;;;;5029477;28;45670;-83
2022/12/01 11:37:20;;;;;;;;;28.00;25.33;;;;;;;;5056813;28;45822;-83
2022/12/01 11:39:46;;;;;;;;;34.00;30.33;;;;;;;;5043943;28;47880;-83
2022/12/01 11:42:22;;;;;;;;;33.67;27.33;;;;;;;;5041384;28;46010;-84
2022/12/01 11:44:53;;;;;;;;;30.67;23.00;;;;;;;;5055766;28;45601;-83
2022/12/01 11:47:21;;;;;;;;;31.67;23.67;;;;;;;;5079056;27;45720;-83
2022/12/01 11:49:51;;;;;;;;;31.67;27.33;;;;;;;;5049188;28;46704;-82
2022/12/01 11:52:32;;;;;;;;;35.00;26.67;;;;;;;;5079699;27;46020;-81
2022/12/01 11:54:58;;;;;;;;;36.00;28.67;;;;;;;;5056588;28;45678;-83
2022/12/01 11:57:28;;;;;;;;;21.33;20.67;;;;;;;;5069705;28;45779;-82
2022/12/01 11:59:53;;;;;;;;;32.67;30.00;;;;;;;;5052980;28;48280;-82
2022/12/01 12:02:41;;;;;;;;;32.67;26.33;;;;;;;;5063068;28;45714;-84
2022/12/01 12:05:09;;;;;;;;;37.33;30.67;;;;;;;;5071320;28;45888;-83
2022/12/01 12:07:44;;;;;;;;;32.33;26.67;;;;;;;;5057158;28;45505;-88
2022/12/01 12:10:16;;;;;;;;;34.33;29.33;;;;;;;;5055635;28;47855;-81
2022/12/01 12:12:52;;;;;;;;;26.33;21.33;;;;;;;;5074291;28;46302;-80
2022/12/01 12:15:20;;;;;;;;;41.33;31.33;;;;;;;;5071653;28;46060;-80
2022/12/01 12:18:03;;;;;;;;;32.33;24.00;;;;;;;;5070910;28;45604;-81
2022/12/01 12:20:46;;;;;;;;;31.33;28.00;;;;;;;;5051674;28;47408;-82
2022/12/01 12:23:18;;;;;;;;;25.00;19.67;;;;;;;;5057763;28;45717;-82
2022/12/01 12:25:43;;;;;;;;;36.67;27.67;;;;;;;;5063224;28;45980;-82
2022/12/01 12:28:16;;;;;;;;;35.33;26.33;;;;;;;;5055045;28;45880;-81
2022/12/01 12:31:02;;;;;;;;;35.67;26.67;;;;;;;;5071422;27;47027;-81
2022/12/01 12:33:35;;;;;;;;;46.33;31.33;;;;;;;;5047828;27;45793;-80
2022/12/01 12:36:13;;;;;;;;;36.33;26.33;;;;;;;;5069720;28;45800;-81
2022/12/01 12:38:44;;;;;;;;;31.67;27.00;;;;;;;;5056551;28;45825;-81
2022/12/01 12:41:32;;;;;;;;;32.67;28.67;;;;;;;;5071023;28;45840;-80
2022/12/01 12:44:18;;;;;;;;;32.33;25.67;;;;;;;;5069415;28;45506;-81
2022/12/01 12:47:02;;;;;;;;;42.00;29.33;;;;;;;;5070818;27;45504;-85
2022/12/01 12:49:57;;;;;;;;;33.33;27.67;;;;;;;;5069187;27;45855;-80
2022/12/01 12:52:25;;;;;;;;;32.33;27.67;;;;;;;;5067219;28;45993;-82
2022/12/01 12:54:56;;;;;;;;;34.00;27.00;;;;;;;;5071442;27;45750;-81
2022/12/01 12:57:24;;;;;;;;;25.00;23.67;;;;;;;;5071486;27;45521;-82
2022/12/01 12:59:58;;;;;;;;;39.67;28.67;;;;;;;;5069421;27;45808;-83
2022/12/01 13:02:33;;;;;;;;;29.33;26.67;;;;;;;;5052999;28;47499;-81
2022/12/01 13:05:05;;;;;;;;;29.67;25.33;;;;;;;;5069600;28;45741;-81
2022/12/01 13:07:39;;;;;;;;;31.33;27.67;;;;;;;;5057157;28;45838;-80
2022/12/01 13:10:10;;;;;;;;;38.33;30.33;;;;;;;;5072156;28;45761;-81
2022/12/01 13:12:39;;;;;;;;;35.33;27.00;;;;;;;;5062189;27;47829;-82
2022/12/01 13:15:16;;;;;;;;;37.00;27.33;;;;;;;;5055872;28;45616;-83
2022/12/01 13:17:51;;;;;;;;;31.67;25.67;;;;;;;;5072734;28;45772;-79
2022/12/01 13:20:19;;;;;;;;;40.67;27.00;;;;;;;;5072993;28;45477;-84
2022/12/01 13:22:46;;;;;;;;;23.33;23.33;;;;;;;;5071685;27;45622;-82
2022/12/01 13:25:22;;;;;;;;;38.33;25.67;;;;;;;;5059129;28;45515;-81
2022/12/01 13:27:49;;;;;;;;;32.67;25.00;;;;;;;;5069679;28;45606;-81
2022/12/01 13:30:31;;;;;;;;;22.33;19.33;;;;;;;;5065905;28;45886;-82
2022/12/01 13:33:04;;;;;;;;;29.00;23.33;;;;;;;;5073497;27;46090;-84
2022/12/01 13:35:34;;;;;;;;;37.67;29.00;;;;;;;;5067486;27;45414;-83
2022/12/01 13:38:15;;;;;;;;;32.67;22.67;;;;;;;;5070270;27;45781;-83
2022/12/01 13:40:41;;;;;;;;;33.33;27.33;;;;;;;;5071868;27;45472;-82
2022/12/01 13:43:15;;;;;;;;;28.00;22.33;;;;;;;;5068127;27;46026;-82
2022/12/01 13:45:41;;;;;;;;;31.67;27.00;;;;;;;;5053997;28;45756;-83
2022/12/01 13:48:28;;;;;;;;;34.33;26.00;;;;;;;;5069944;28;45450;-83
2022/12/01 13:50:53;;;;;;;;;35.00;27.33;;;;;;;;5066054;27;45829;-82
2022/12/01 13:53:19;;;;;;;;;33.67;28.00;;;;;;;;5065783;28;47033;-82
2022/12/01 13:55:59;;;;;;;;;21.33;18.00;;;;;;;;5053950;28;45753;-82
2022/12/01 13:58:40;;;;;;;;;34.33;26.67;;;;;;;;5053992;28;45800;-83
2022/12/01 14:01:20;;;;;;;;;24.33;17.67;;;;;;;;5064217;27;45958;-84
2022/12/01 14:03:52;;;;;;;;;26.33;21.67;;;;;;;;5070266;27;46301;-83
2022/12/01 14:06:29;;;;;;;;;24.67;20.67;;;;;;;;5083021;27;45428;-84
2022/12/01 14:08:57;;;;;;;;;29.67;28.67;;;;;;;;5075159;28;45847;-82
2022/12/01 14:11:23;;;;;;;;;24.67;19.67;;;;;;;;5051822;28;46396;-85
2022/12/01 14:13:54;;;;;;;;;31.33;23.67;;;;;;;;5073804;28;46470;-84
2022/12/01 14:16:20;;;;;;;;;36.33;26.33;;;;;;;;5073766;28;45689;-84
2022/12/01 14:18:48;;;;;;;;;30.00;26.67;;;;;;;;5072799;28;45867;-82
2022/12/01 14:21:14;;;;;;;;;31.33;25.33;;;;;;;;5076234;28;45445;-84
2022/12/01 14:23:58;;;;;;;;;29.33;24.00;;;;;;;;5075569;28;46267;-84
2022/12/01 14:26:26;;;;;;;;;25.67;19.67;;;;;;;;5073681;27;45501;-84
2022/12/01 14:28:54;;;;;;;;;33.00;29.33;;;;;;;;5076708;28;45606;-85
2022/12/01 14:31:23;;;;;;;;;33.00;27.67;;;;;;;;5073939;28;45572;-85
2022/12/01 14:33:57;;;;;;;;;30.33;24.33;;;;;;;;5073810;28;45829;-85
2022/12/01 14:36:23;;;;;;;;;27.00;22.67;;;;;;;;5077915;28;45452;-82
2022/12/01 14:38:59;;;;;;;;;30.67;24.33;;;;;;;;5055181;28;45546;-84
2022/12/01 14:41:26;;;;;;;;;25.33;21.67;;;;;;;;5071852;28;45514;-83
2022/12/01 14:44:07;;;;;;;;;21.33;15.00;;;;;;;;5058043;28;47471;-85
2022/12/01 14:46:52;;;;;;;;;35.33;30.00;;;;;;;;5073189;28;45309;-84
2022/12/01 14:49:20;;;;;;;;;26.33;22.33;;;;;;;;5053739;28;45534;-83
2022/12/01 14:51:49;;;;;;;;;28.67;20.33;;;;;;;;5068514;27;45938;-81
2022/12/01 14:54:17;;;;;;;;;33.67;27.00;;;;;;;;5051271;28;47243;-81
2022/12/01 14:56:47;;;;;;;;;21.00;19.00;;;;;;;;5073008;28;45813;-84
2022/12/01 14:59:14;;;;;;;;;35.00;28.67;;;;;;;;5074394;28;45961;-85
2022/12/01 15:01:39;;;;;;;;;32.00;27.67;;;;;;;;5068012;28;45656;-82
2022/12/01 15:04:05;;;;;;;;;32.67;27.33;;;;;;;;5068968;28;45472;-83
2022/12/01 15:06:34;;;;;;;;;27.00;21.33;;;;;;;;5070150;28;45431;-83
2022/12/01 15:09:07;;;;;;;;;34.00;27.67;;;;;;;;5052683;28;45825;-83
2022/12/01 15:11:34;;;;;;;;;27.33;23.67;;;;;;;;5053321;28;46535;-83
2022/12/01 15:14:00;;;;;;;;;24.00;23.67;;;;;;;;5069327;27;46371;-84
2022/12/01 15:16:28;;;;;;;;;32.00;20.33;;;;;;;;5071982;27;46060;-84
2022/12/01 15:19:01;;;;;;;;;30.33;21.00;;;;;;;;5055859;28;45787;-84
2022/12/01 15:21:31;;;;;;;;;31.67;25.00;;;;;;;;5073909;28;45543;-84
2022/12/01 15:24:04;;;;;;;;;29.33;23.33;;;;;;;;5056418;28;47822;-82
2022/12/01 15:26:32;;;;;;;;;33.33;29.33;;;;;;;;5054917;28;45441;-82
2022/12/01 15:29:04;;;;;;;;;26.33;24.33;;;;;;;;5064659;28;45537;-84
2022/12/01 15:31:43;;;;;;;;;33.00;29.67;;;;;;;;5072648;28;45799;-84
2022/12/01 15:34:22;;;;;;;;;29.00;23.33;;;;;;;;5064810;28;46849;-85
2022/12/01 15:36:50;;;;;;;;;34.67;31.33;;;;;;;;5058371;28;45486;-82
2022/12/01 15:39:17;;;;;;;;;29.00;24.00;;;;;;;;5058286;28;45429;-83
2022/12/01 15:41:43;;;;;;;;;28.00;24.00;;;;;;;;5061585;28;46176;-82